China Lake Naws (Armitage Field) Airport
KNID : rendu visible

Aérodrome :











RETROUVEZ-NOUS SUR...

 
LOGIN :

S'inscrire | Disclaimer

   EN    FR    IT 

 









Légende :    VFR   VFR Marginal   IFR   IFR Intensif   IFR Très Intensif
Visi : 
Plafond : 
>= 8 km
>= 3000ft
5 à 8 km
1000 à 3000 ft
1500m à 5 km
500 à 1000 ft
800 à 1500m
200 à 500 ft
< 800m
< 200 ft
Symboles :   Orages  Brouillard  Fortes neiges  Fortes précipitations  Vent > 20 kt






- Altitude de l'aérodrome : 2283 ft


KNID - China Lake Naws (Armitage Field)

DERNIER METAR :
  • 100756Z AUTO 00000KT 10SM CLR 04/02 A3021 RMK AO2 SLP232 T00440017 401720044 $

METARs EXPIRÉS :
  • 100656Z AUTO 20003KT 10SM CLR 05/02 A3020 RMK AO2 SLP229 T00500022 $
  • 100556Z 23006KT 10SM CLR 07/03 A3019 RMK AO2 SLP225 T00720028 10172 20072 53019 $

TAF TAF KNID
Valide du 09 à 23h jusqu'au 10 à 23h UTC


0923/1023 VRB04KT 9999 FEW250 QNH3004INS
BECMG 1001/1003 23006KT 9999 SKC QNH3009INS
BECMG 1012/1014 21006KT 9999 SCT250 QNH3024INS
BECMG 1016/1018 VRB04KT 9999 FEW180 BKN220 QNH3022INS TM01/1014Z T14/1022Z LAST NO AMDS AFT 1006 NEXT 1015



MET'MAP, la Météo Aéronautique d'un coup d'oeil ! - Copyright ORBIFLY Décembre 2007 - Disclaimer

ORBIFLY MET'MAP TEAM :

Programmation & Développement : Alexandra Zaïnal
Sur une idée originale de : Baudouin d'Aumeries
Assistance à la programmation : Marc-Olivier Méhu
Soutien technique & logistique : Manuel Goepfert

Contact : metmap@orbifly.com




SOURCES & CREDITS :

   NOAA       Earth
Advisory